createdAt,value
2018-07-20T00:00:21.688Z,4.00
2018-07-20T00:01:21.609Z,4.00
2018-07-20T00:02:21.629Z,4.00
2018-07-20T00:03:21.657Z,4.00
2018-07-20T00:04:21.665Z,4.00
2018-07-20T00:05:21.688Z,4.00
2018-07-20T00:06:21.772Z,4.00
2018-07-20T00:07:21.720Z,4.00
2018-07-20T00:08:21.735Z,4.00
2018-07-20T00:09:21.758Z,4.00
2018-07-20T00:10:21.769Z,4.00
2018-07-20T00:11:21.781Z,4.00
2018-07-20T00:12:21.856Z,4.00
2018-07-20T00:13:21.821Z,4.00
2018-07-20T00:14:21.830Z,4.00
2018-07-20T00:15:21.849Z,4.00
2018-07-20T00:16:21.920Z,4.00
2018-07-20T00:17:21.880Z,4.00
2018-07-20T00:18:21.896Z,4.00
2018-07-20T00:19:21.921Z,4.00
2018-07-20T00:20:21.932Z,4.00
2018-07-20T00:21:21.946Z,4.00
2018-07-20T00:22:21.972Z,4.00
2018-07-20T00:23:21.988Z,4.00
2018-07-20T00:24:22.003Z,4.00
2018-07-20T00:25:22.011Z,4.00
2018-07-20T00:26:22.030Z,4.00
2018-07-20T00:27:22.051Z,4.00
2018-07-20T00:28:22.067Z,4.00
2018-07-20T00:29:22.085Z,4.00
2018-07-20T00:30:22.155Z,4.00
2018-07-20T00:31:22.111Z,4.00
2018-07-20T00:32:22.131Z,4.00
2018-07-20T00:33:22.153Z,4.00
2018-07-20T00:34:22.166Z,4.00
2018-07-20T00:35:22.179Z,4.00
2018-07-20T00:36:22.271Z,4.00
2018-07-20T00:37:22.212Z,4.00
2018-07-20T00:38:22.227Z,4.00
2018-07-20T00:39:22.243Z,4.00
2018-07-20T00:40:22.273Z,4.00
2018-07-20T00:41:22.280Z,4.00
2018-07-20T00:42:22.357Z,4.00
2018-07-20T00:43:22.318Z,4.00
2018-07-20T00:44:22.333Z,4.00
2018-07-20T00:45:22.349Z,4.00
2018-07-20T00:46:22.415Z,4.00
2018-07-20T00:47:22.379Z,4.00
2018-07-20T00:48:22.479Z,4.00
2018-07-20T00:49:22.417Z,4.00
2018-07-20T00:50:22.428Z,4.00
2018-07-20T00:51:22.460Z,4.00
2018-07-20T00:52:22.466Z,4.00
2018-07-20T00:53:22.479Z,4.00
2018-07-20T00:54:22.546Z,4.00
2018-07-20T00:55:22.524Z,4.00
2018-07-20T00:56:22.527Z,4.00
2018-07-20T00:57:22.550Z,4.00
2018-07-20T00:58:22.620Z,4.00
2018-07-20T00:59:22.580Z,4.00
2018-07-20T01:00:22.690Z,4.00
2018-07-20T01:01:22.624Z,4.00
2018-07-20T01:02:22.629Z,4.00
2018-07-20T01:03:22.651Z,4.00
2018-07-20T01:04:22.716Z,4.00
2018-07-20T01:05:22.724Z,4.00
2018-07-20T01:06:22.700Z,4.00
2018-07-20T01:07:22.717Z,4.00
2018-07-20T01:08:22.730Z,4.00
2018-07-20T01:09:22.748Z,4.00
2018-07-20T01:10:22.766Z,4.00
2018-07-20T01:11:22.786Z,4.00
2018-07-20T01:12:22.796Z,4.00
2018-07-20T01:13:22.816Z,4.00
2018-07-20T01:14:22.830Z,4.00
2018-07-20T01:15:22.847Z,4.00
2018-07-20T01:16:22.864Z,4.00
2018-07-20T01:17:22.881Z,4.00
2018-07-20T01:18:22.896Z,4.00
2018-07-20T01:19:22.916Z,4.00
2018-07-20T01:20:22.931Z,4.00
2018-07-20T01:21:22.944Z,4.00
2018-07-20T01:22:22.982Z,4.00
2018-07-20T01:23:22.980Z,4.00
2018-07-20T01:24:23.008Z,4.00
2018-07-20T01:25:23.016Z,4.00
2018-07-20T01:26:23.047Z,4.00
2018-07-20T01:27:23.047Z,4.00
2018-07-20T01:28:23.064Z,4.00
2018-07-20T01:29:23.086Z,4.00
2018-07-20T01:30:23.100Z,4.00
2018-07-20T01:31:23.111Z,4.00
2018-07-20T01:32:23.130Z,4.00
2018-07-20T01:33:23.141Z,4.00
2018-07-20T01:34:23.165Z,4.00
2018-07-20T01:35:23.183Z,4.00
2018-07-20T01:36:23.191Z,4.00
2018-07-20T01:37:23.215Z,4.00
2018-07-20T01:38:23.224Z,4.00
2018-07-20T01:39:23.240Z,4.00
2018-07-20T01:40:23.255Z,4.00
2018-07-20T01:41:23.272Z,4.00
2018-07-20T01:42:23.299Z,4.00
2018-07-20T01:43:23.312Z,4.00
2018-07-20T01:44:23.327Z,4.00
2018-07-20T01:45:23.340Z,4.00
2018-07-20T01:46:23.367Z,4.00
2018-07-20T01:47:23.377Z,4.00
2018-07-20T01:48:23.392Z,4.00
2018-07-20T01:49:23.411Z,4.00
2018-07-20T01:50:23.434Z,4.00
2018-07-20T01:51:23.444Z,4.00
2018-07-20T01:52:23.499Z,4.00
2018-07-20T01:53:23.477Z,4.00
2018-07-20T01:54:23.493Z,4.00
2018-07-20T01:55:23.518Z,4.00
2018-07-20T01:56:23.531Z,4.00
2018-07-20T01:57:23.537Z,4.00
2018-07-20T01:58:23.563Z,4.00
2018-07-20T01:59:23.573Z,4.00
2018-07-20T02:00:23.599Z,4.00
2018-07-20T02:01:23.623Z,4.00
2018-07-20T02:02:23.628Z,4.00
2018-07-20T02:03:23.652Z,4.00
2018-07-20T02:04:23.659Z,4.00
2018-07-20T02:05:23.676Z,4.00
2018-07-20T02:06:23.693Z,4.00
2018-07-20T02:07:23.705Z,4.00
2018-07-20T02:08:23.726Z,4.00
2018-07-20T02:09:23.746Z,4.00
2018-07-20T02:10:23.764Z,4.00
2018-07-20T02:11:23.773Z,4.00
2018-07-20T02:12:23.789Z,4.00
2018-07-20T02:13:23.816Z,4.00
2018-07-20T02:14:23.831Z,4.00
2018-07-20T02:15:23.844Z,4.00
2018-07-20T02:16:23.862Z,4.00
2018-07-20T02:17:23.879Z,4.00
2018-07-20T02:18:23.892Z,4.00
2018-07-20T02:19:23.916Z,4.00
2018-07-20T02:20:23.925Z,4.00
2018-07-20T02:21:23.949Z,4.00
2018-07-20T02:22:23.963Z,4.00
2018-07-20T02:23:23.984Z,4.00
2018-07-20T02:24:23.996Z,4.00
2018-07-20T02:25:24.097Z,4.00
2018-07-20T02:26:24.022Z,4.00
2018-07-20T02:27:24.045Z,4.00
2018-07-20T02:28:24.060Z,4.00
2018-07-20T02:29:24.116Z,4.00
2018-07-20T02:30:24.097Z,4.00
2018-07-20T02:31:24.110Z,4.00
2018-07-20T02:32:24.134Z,4.00
2018-07-20T02:33:24.143Z,4.00
2018-07-20T02:34:24.170Z,4.00
2018-07-20T02:35:24.178Z,4.00
2018-07-20T02:36:24.193Z,4.00
2018-07-20T02:37:24.207Z,4.00
2018-07-20T02:38:24.231Z,4.00
2018-07-20T02:39:24.239Z,4.00
2018-07-20T02:40:24.254Z,4.00
2018-07-20T02:41:24.277Z,4.00
2018-07-20T02:42:24.286Z,4.00
2018-07-20T02:43:24.306Z,4.00
2018-07-20T02:44:24.317Z,4.00
2018-07-20T02:45:24.345Z,4.00
2018-07-20T02:46:24.360Z,4.00
2018-07-20T02:47:24.370Z,4.00
2018-07-20T02:48:24.393Z,4.00
2018-07-20T02:49:24.406Z,4.00
2018-07-20T02:50:24.422Z,4.00
2018-07-20T02:51:24.499Z,4.00
2018-07-20T02:52:24.459Z,4.00
2018-07-20T02:53:24.470Z,4.00
2018-07-20T02:54:24.493Z,4.00
2018-07-20T02:55:24.527Z,4.00
2018-07-20T02:56:24.515Z,4.00
2018-07-20T02:57:24.590Z,4.00
2018-07-20T02:58:24.563Z,4.00
2018-07-20T02:59:24.569Z,4.00
2018-07-20T03:00:24.593Z,4.00
2018-07-20T03:01:24.608Z,4.00
2018-07-20T03:02:24.621Z,4.00
2018-07-20T03:03:24.689Z,4.00
2018-07-20T03:04:24.651Z,4.00
2018-07-20T03:05:24.674Z,4.00
2018-07-20T03:06:24.695Z,4.00
2018-07-20T03:07:24.720Z,4.00
2018-07-20T03:08:24.721Z,4.00
2018-07-20T03:09:24.736Z,4.00
2018-07-20T03:10:24.761Z,4.00
2018-07-20T03:11:24.772Z,4.00
2018-07-20T03:12:24.796Z,4.00
2018-07-20T03:13:24.842Z,4.00
2018-07-20T03:14:24.827Z,4.00
2018-07-20T03:15:24.850Z,4.00
2018-07-20T03:16:24.855Z,4.00
2018-07-20T03:17:24.879Z,4.00
2018-07-20T03:18:24.890Z,4.00
2018-07-20T03:19:24.900Z,4.00
2018-07-20T03:20:24.916Z,4.00
2018-07-20T03:21:24.948Z,4.00
2018-07-20T03:22:24.951Z,4.00
2018-07-20T03:23:24.968Z,4.00
2018-07-20T03:24:24.985Z,4.00
2018-07-20T03:25:25.002Z,4.00
2018-07-20T03:26:25.020Z,4.00
2018-07-20T03:27:25.090Z,4.00
2018-07-20T03:28:25.047Z,4.00
2018-07-20T03:29:25.063Z,4.00
2018-07-20T03:30:25.079Z,4.00
2018-07-20T03:31:25.105Z,4.00
2018-07-20T03:32:25.115Z,4.00
2018-07-20T03:33:25.133Z,4.00
2018-07-20T03:34:25.157Z,4.00
2018-07-20T03:35:25.164Z,4.00
2018-07-20T03:36:25.189Z,4.00
2018-07-20T03:37:25.202Z,4.00
2018-07-20T03:38:25.218Z,4.00
2018-07-20T03:39:25.234Z,4.00
2018-07-20T03:40:25.254Z,4.00
2018-07-20T03:41:25.264Z,4.00
2018-07-20T03:42:25.280Z,4.00
2018-07-20T03:43:25.302Z,4.00
2018-07-20T03:44:25.321Z,4.00
2018-07-20T03:45:25.391Z,4.00
2018-07-20T03:46:25.352Z,4.00
2018-07-20T03:47:25.366Z,4.00
2018-07-20T03:48:25.402Z,4.00
2018-07-20T03:49:25.399Z,4.00
2018-07-20T03:50:25.418Z,4.00
2018-07-20T03:51:25.432Z,4.00
2018-07-20T03:52:25.440Z,4.00
2018-07-20T03:53:25.459Z,4.00
2018-07-20T03:54:25.506Z,4.00
2018-07-20T03:55:25.495Z,4.00
2018-07-20T03:56:25.533Z,4.00
2018-07-20T03:57:25.592Z,4.00
2018-07-20T03:58:25.542Z,4.00
2018-07-20T03:59:25.556Z,4.00
2018-07-20T04:00:25.579Z,4.00
2018-07-20T04:01:25.592Z,4.00
2018-07-20T04:02:25.696Z,4.00
2018-07-20T04:03:25.673Z,4.00
2018-07-20T04:04:25.647Z,4.00
2018-07-20T04:05:25.661Z,4.00
2018-07-20T04:06:25.674Z,4.00
2018-07-20T04:07:25.689Z,4.00
2018-07-20T04:08:25.721Z,4.00
2018-07-20T04:09:25.773Z,4.00
2018-07-20T04:10:25.741Z,4.00
2018-07-20T04:11:25.767Z,4.00
2018-07-20T04:12:25.775Z,4.00
2018-07-20T04:13:25.793Z,4.00
2018-07-20T04:14:25.871Z,4.00
2018-07-20T04:15:25.831Z,4.00
2018-07-20T04:16:25.847Z,4.00
2018-07-20T04:17:25.858Z,4.00
2018-07-20T04:18:25.879Z,4.00
2018-07-20T04:19:25.887Z,4.00
2018-07-20T04:20:25.931Z,4.00
2018-07-20T04:21:25.917Z,4.00
2018-07-20T04:22:25.942Z,4.00
2018-07-20T04:23:25.953Z,4.00
2018-07-20T04:24:25.993Z,4.00
2018-07-20T04:25:25.981Z,4.00
2018-07-20T04:26:25.997Z,4.00
2018-07-20T04:27:26.019Z,4.00
2018-07-20T04:28:26.033Z,4.00
2018-07-20T04:29:26.052Z,4.00
2018-07-20T04:30:26.064Z,4.00
2018-07-20T04:31:26.085Z,4.00
2018-07-20T04:32:26.101Z,4.00
2018-07-20T04:33:26.116Z,4.00
2018-07-20T04:34:26.137Z,4.00
2018-07-20T04:35:26.153Z,4.00
2018-07-20T04:36:26.209Z,4.00
2018-07-20T04:37:26.184Z,4.00
2018-07-20T04:38:26.206Z,4.00
2018-07-20T04:39:26.224Z,4.00
2018-07-20T04:40:26.229Z,4.00
2018-07-20T04:41:26.256Z,4.00
2018-07-20T04:42:26.275Z,4.00
2018-07-20T04:43:26.287Z,4.00
2018-07-20T04:44:26.397Z,4.00
2018-07-20T04:45:26.318Z,4.00
2018-07-20T04:46:26.337Z,4.00
2018-07-20T04:47:26.369Z,4.00
2018-07-20T04:48:26.365Z,4.00
2018-07-20T04:49:26.379Z,4.00
2018-07-20T04:50:26.404Z,4.00
2018-07-20T04:51:26.419Z,4.00
2018-07-20T04:52:26.431Z,0.00
2018-07-20T04:53:26.453Z,0.00
2018-07-20T04:54:26.463Z,0.00
2018-07-20T04:55:26.480Z,0.00
2018-07-20T04:56:26.499Z,0.00
2018-07-20T04:57:26.516Z,0.00
2018-07-20T04:58:26.531Z,0.00
2018-07-20T04:59:26.545Z,4.00
2018-07-20T05:00:26.563Z,4.00
2018-07-20T05:01:26.579Z,4.00
2018-07-20T05:02:26.597Z,4.00
2018-07-20T05:03:26.613Z,4.00
2018-07-20T05:04:26.627Z,4.00
2018-07-20T05:05:26.652Z,4.00
2018-07-20T05:06:26.675Z,8.00
2018-07-20T05:07:26.684Z,4.00
2018-07-20T05:08:26.743Z,4.00
2018-07-20T05:09:26.715Z,8.00
2018-07-20T05:10:26.729Z,8.00
2018-07-20T05:11:26.779Z,8.00
2018-07-20T05:12:26.764Z,8.00
2018-07-20T05:13:26.777Z,12.00
2018-07-20T05:14:26.793Z,8.00
2018-07-20T05:15:26.861Z,12.00
2018-07-20T05:16:26.835Z,12.00
2018-07-20T05:17:26.841Z,16.00
2018-07-20T05:18:26.916Z,12.00
2018-07-20T05:19:26.883Z,16.00
2018-07-20T05:20:26.979Z,20.00
2018-07-20T05:21:26.905Z,20.00
2018-07-20T05:22:26.921Z,24.00
2018-07-20T05:23:26.939Z,28.00
2018-07-20T05:24:26.963Z,32.00
2018-07-20T05:25:26.980Z,32.00
2018-07-20T05:26:26.994Z,36.00
2018-07-20T05:27:27.011Z,32.00
2018-07-20T05:28:27.029Z,36.00
2018-07-20T05:29:27.045Z,40.00
2018-07-20T05:30:27.057Z,40.00
2018-07-20T05:31:27.090Z,48.00
2018-07-20T05:32:27.098Z,48.00
2018-07-20T05:33:27.153Z,52.00
2018-07-20T05:34:27.124Z,56.00
2018-07-20T05:35:27.147Z,60.00
2018-07-20T05:36:27.163Z,64.00
2018-07-20T05:37:27.175Z,72.00
2018-07-20T05:38:27.192Z,72.00
2018-07-20T05:39:27.205Z,76.00
2018-07-20T05:40:27.228Z,84.00
2018-07-20T05:41:27.238Z,88.00
2018-07-20T05:42:27.261Z,100.00
2018-07-20T05:43:27.282Z,104.00
2018-07-20T05:44:27.292Z,108.00
2018-07-20T05:45:27.313Z,112.00
2018-07-20T05:46:27.325Z,124.00
2018-07-20T05:47:27.344Z,140.00
2018-07-20T05:48:27.363Z,148.00
2018-07-20T05:49:27.396Z,160.00
2018-07-20T05:50:27.399Z,176.00
2018-07-20T05:51:27.461Z,192.00
2018-07-20T05:52:27.432Z,196.00
2018-07-20T05:53:27.503Z,188.00
2018-07-20T05:54:27.463Z,200.00
2018-07-20T05:55:27.476Z,204.00
2018-07-20T05:56:27.499Z,208.00
2018-07-20T05:57:27.504Z,236.00
2018-07-20T05:58:27.524Z,244.00
2018-07-20T05:59:27.541Z,272.00
2018-07-20T06:00:27.559Z,308.00
2018-07-20T06:01:27.579Z,324.00
2018-07-20T06:02:27.589Z,344.00
2018-07-20T06:03:27.613Z,336.00
2018-07-20T06:04:27.625Z,348.00
2018-07-20T06:05:27.676Z,376.00
2018-07-20T06:06:27.657Z,408.00
2018-07-20T06:07:27.742Z,380.00
2018-07-20T06:08:27.695Z,360.00
2018-07-20T06:09:27.763Z,384.00
2018-07-20T06:10:27.729Z,432.00
2018-07-20T06:11:27.751Z,476.00
2018-07-20T06:12:27.768Z,536.00
2018-07-20T06:13:27.810Z,516.00
2018-07-20T06:14:27.799Z,564.00
2018-07-20T06:15:27.871Z,572.00
2018-07-20T06:16:27.832Z,608.00
2018-07-20T06:17:27.849Z,684.00
2018-07-20T06:18:27.866Z,696.00
2018-07-20T06:19:27.881Z,740.00
2018-07-20T06:20:27.899Z,928.00
2018-07-20T06:21:27.928Z,920.00
2018-07-20T06:22:27.931Z,916.00
2018-07-20T06:23:27.971Z,884.00
2018-07-20T06:24:27.972Z,1008.00
2018-07-20T06:25:28.015Z,1032.00
2018-07-20T06:26:28.013Z,1044.00
2018-07-20T06:27:28.068Z,924.00
2018-07-20T06:28:28.036Z,892.00
2018-07-20T06:29:28.052Z,912.00
2018-07-20T06:30:28.072Z,916.00
2018-07-20T06:31:28.100Z,916.00
2018-07-20T06:32:28.100Z,968.00
2018-07-20T06:33:28.115Z,984.00
2018-07-20T06:34:28.144Z,932.00
2018-07-20T06:35:28.152Z,876.00
2018-07-20T06:36:28.167Z,844.00
2018-07-20T06:37:28.240Z,884.00
2018-07-20T06:38:28.200Z,952.00
2018-07-20T06:39:28.217Z,1012.00
2018-07-20T06:40:28.236Z,1032.00
2018-07-20T06:41:28.252Z,1032.00
2018-07-20T06:42:28.271Z,1024.00
2018-07-20T06:43:28.288Z,1076.00
2018-07-20T06:44:28.304Z,1244.00
2018-07-20T06:45:28.328Z,1248.00
2018-07-20T06:46:28.339Z,1140.00
2018-07-20T06:47:28.355Z,1196.00
2018-07-20T06:48:28.375Z,1236.00
2018-07-20T06:49:28.432Z,1280.00
2018-07-20T06:50:28.412Z,1380.00
2018-07-20T06:51:28.429Z,2572.00
2018-07-20T06:52:28.440Z,1468.00
2018-07-20T06:53:28.460Z,1500.00
2018-07-20T06:54:28.476Z,1464.00
2018-07-20T06:55:28.494Z,1448.00
2018-07-20T06:56:28.510Z,1376.00
2018-07-20T06:57:28.532Z,1336.00
2018-07-20T06:58:28.546Z,1324.00
2018-07-20T06:59:28.572Z,1304.00
2018-07-20T07:00:28.583Z,1352.00
2018-07-20T07:01:28.600Z,1320.00
2018-07-20T07:02:28.620Z,1288.00
2018-07-20T07:03:28.631Z,1268.00
2018-07-20T07:04:28.647Z,1304.00
2018-07-20T07:05:28.668Z,1364.00
2018-07-20T07:06:28.683Z,1456.00
2018-07-20T07:07:28.703Z,1492.00
2018-07-20T07:08:28.714Z,1576.00
2018-07-20T07:09:28.810Z,1596.00
2018-07-20T07:10:28.747Z,1684.00
2018-07-20T07:11:28.768Z,1744.00
2018-07-20T07:12:28.788Z,2620.00
2018-07-20T07:13:28.804Z,1876.00
2018-07-20T07:14:28.820Z,2032.00
2018-07-20T07:15:28.888Z,2088.00
2018-07-20T07:16:28.851Z,2296.00
2018-07-20T07:17:28.872Z,2440.00
2018-07-20T07:18:28.892Z,3024.00
2018-07-20T07:19:28.912Z,2996.00
2018-07-20T07:20:28.925Z,3044.00
2018-07-20T07:21:28.943Z,3188.00
2018-07-20T07:22:28.962Z,3636.00
2018-07-20T07:23:28.979Z,2948.00
2018-07-20T07:24:28.996Z,2868.00
2018-07-20T07:25:29.019Z,2756.00
2018-07-20T07:26:29.121Z,3340.00
2018-07-20T07:27:29.094Z,3672.00
2018-07-20T07:28:29.063Z,2992.00
2018-07-20T07:29:29.086Z,2932.00
2018-07-20T07:30:29.107Z,2764.00
2018-07-20T07:31:29.116Z,3504.00
2018-07-20T07:32:29.131Z,4380.00
2018-07-20T07:33:29.162Z,6444.00
2018-07-20T07:34:29.171Z,3880.00
2018-07-20T07:35:29.191Z,4564.00
2018-07-20T07:36:29.203Z,3336.00
2018-07-20T07:37:29.223Z,3176.00
2018-07-20T07:38:29.243Z,6096.00
2018-07-20T07:39:29.310Z,2788.00
2018-07-20T07:40:29.275Z,5096.00
2018-07-20T07:41:29.296Z,4308.00
2018-07-20T07:42:29.308Z,9004.00
2018-07-20T07:43:29.326Z,5204.00
2018-07-20T07:44:29.375Z,4276.00
2018-07-20T07:45:29.367Z,6116.00
2018-07-20T07:46:29.384Z,4548.00
2018-07-20T07:47:29.399Z,6716.00
2018-07-20T07:48:29.415Z,4352.00
2018-07-20T07:49:29.440Z,4252.00
2018-07-20T07:50:29.451Z,8852.00
2018-07-20T07:51:29.480Z,4232.00
2018-07-20T07:52:29.491Z,10112.00
2018-07-20T07:53:29.507Z,9124.00
2018-07-20T07:54:29.527Z,3264.00
2018-07-20T07:55:29.550Z,5628.00
2018-07-20T07:56:29.583Z,9824.00
2018-07-20T07:57:29.635Z,4940.00
2018-07-20T07:58:29.598Z,10752.00
2018-07-20T07:59:29.624Z,4808.00
2018-07-20T08:00:29.640Z,4872.00
2018-07-20T08:01:29.654Z,7088.00
2018-07-20T08:02:29.675Z,8020.00
2018-07-20T08:03:29.805Z,10016.00
2018-07-20T08:04:29.741Z,4272.00
2018-07-20T08:05:29.738Z,7796.00
2018-07-20T08:06:29.754Z,9568.00
2018-07-20T08:07:29.771Z,11048.00
2018-07-20T08:08:29.819Z,10368.00
2018-07-20T08:09:29.859Z,6216.00
2018-07-20T08:10:29.843Z,6928.00
2018-07-20T08:11:29.849Z,3472.00
2018-07-20T08:12:29.871Z,10356.00
2018-07-20T08:13:29.879Z,10268.00
2018-07-20T08:14:29.950Z,10204.00
2018-07-20T08:15:29.974Z,9896.00
2018-07-20T08:16:29.939Z,10140.00
2018-07-20T08:17:29.977Z,10028.00
2018-07-20T08:18:29.998Z,10472.00
2018-07-20T08:19:29.999Z,10372.00
2018-07-20T08:20:30.027Z,10584.00
2018-07-20T08:21:30.088Z,10924.00
2018-07-20T08:22:30.051Z,9800.00
2018-07-20T08:23:30.075Z,9364.00
2018-07-20T08:24:30.086Z,13072.00
2018-07-20T08:25:30.107Z,10716.00
2018-07-20T08:26:30.130Z,12176.00
2018-07-20T08:27:30.203Z,12296.00
2018-07-20T08:28:30.171Z,10492.00
2018-07-20T08:29:30.185Z,12044.00
2018-07-20T08:30:30.207Z,4340.00
2018-07-20T08:31:30.223Z,4168.00
2018-07-20T08:32:30.247Z,7268.00
2018-07-20T08:33:30.270Z,11428.00
2018-07-20T08:34:30.286Z,11528.00
2018-07-20T08:35:30.306Z,3248.00
2018-07-20T08:36:30.322Z,11880.00
2018-07-20T08:37:30.344Z,11904.00
2018-07-20T08:38:30.362Z,11804.00
2018-07-20T08:39:30.434Z,11544.00
2018-07-20T08:40:30.410Z,11756.00
2018-07-20T08:41:30.433Z,11852.00
2018-07-20T08:42:30.453Z,11488.00
2018-07-20T08:43:30.466Z,11780.00
2018-07-20T08:44:30.511Z,9304.00
2018-07-20T08:45:30.508Z,8064.00
2018-07-20T08:46:30.538Z,3496.00
2018-07-20T08:47:30.556Z,12476.00
2018-07-20T08:48:30.559Z,3480.00
2018-07-20T08:49:30.590Z,9428.00
2018-07-20T08:50:30.626Z,11760.00
2018-07-20T08:51:30.618Z,7916.00
2018-07-20T08:52:30.643Z,4864.00
2018-07-20T08:53:30.652Z,12576.00
2018-07-20T08:54:30.679Z,9400.00
2018-07-20T08:55:30.694Z,5052.00
2018-07-20T08:56:30.726Z,3776.00
2018-07-20T08:57:30.786Z,13288.00
2018-07-20T08:58:30.762Z,4684.00
2018-07-20T08:59:30.774Z,5144.00
2018-07-20T09:00:30.788Z,6248.00
2018-07-20T09:01:30.819Z,5896.00
2018-07-20T09:02:30.834Z,11724.00
2018-07-20T09:03:30.857Z,12592.00
2018-07-20T09:04:30.870Z,11128.00
2018-07-20T09:05:30.886Z,12796.00
2018-07-20T09:06:30.910Z,13336.00
2018-07-20T09:07:30.935Z,12156.00
2018-07-20T09:08:30.952Z,13664.00
2018-07-20T09:09:31.062Z,11472.00
2018-07-20T09:10:31.009Z,6984.00
2018-07-20T09:11:31.007Z,13612.00
2018-07-20T09:12:31.023Z,13716.00
2018-07-20T09:13:31.060Z,13528.00
2018-07-20T09:14:31.061Z,13644.00
2018-07-20T09:15:31.161Z,13500.00
2018-07-20T09:16:31.102Z,13952.00
2018-07-20T09:17:31.131Z,13712.00
2018-07-20T09:18:31.147Z,4680.00
2018-07-20T09:19:31.171Z,11896.00
2018-07-20T09:20:31.236Z,7240.00
2018-07-20T09:21:31.274Z,13952.00
2018-07-20T09:22:31.230Z,10428.00
2018-07-20T09:23:31.254Z,13896.00
2018-07-20T09:24:31.259Z,13396.00
2018-07-20T09:25:31.286Z,13296.00
2018-07-20T09:26:31.306Z,8516.00
2018-07-20T09:27:31.346Z,13492.00
2018-07-20T09:28:31.350Z,11728.00
2018-07-20T09:29:31.366Z,13792.00
2018-07-20T09:30:31.391Z,3520.00
2018-07-20T09:31:31.413Z,7228.00
2018-07-20T09:32:31.431Z,13464.00
2018-07-20T09:33:31.514Z,13996.00
2018-07-20T09:34:31.470Z,13680.00
2018-07-20T09:35:31.486Z,13380.00
2018-07-20T09:36:31.513Z,13196.00
2018-07-20T09:37:31.524Z,13048.00
2018-07-20T09:38:31.554Z,13364.00
2018-07-20T09:39:31.574Z,13372.00
2018-07-20T09:40:31.600Z,13184.00
2018-07-20T09:41:31.614Z,13484.00
2018-07-20T09:42:31.634Z,13444.00
2018-07-20T09:43:31.654Z,13364.00
2018-07-20T09:44:31.744Z,13496.00
2018-07-20T09:45:31.785Z,13520.00
2018-07-20T09:46:31.713Z,13532.00
2018-07-20T09:47:31.738Z,13612.00
2018-07-20T09:48:31.957Z,13684.00
2018-07-20T09:49:31.791Z,13696.00
2018-07-20T09:50:31.797Z,13760.00
2018-07-20T09:51:31.820Z,13712.00
2018-07-20T09:52:31.846Z,13752.00
2018-07-20T09:53:31.872Z,13796.00
2018-07-20T09:54:31.890Z,13768.00
2018-07-20T09:55:31.906Z,13844.00
2018-07-20T09:56:31.925Z,14068.00
2018-07-20T09:57:32.001Z,14360.00
2018-07-20T09:58:32.029Z,14212.00
2018-07-20T09:59:32.107Z,14352.00
2018-07-20T10:00:32.013Z,10016.00
2018-07-20T10:01:32.038Z,15232.00
2018-07-20T10:02:32.058Z,10032.00
2018-07-20T10:03:32.129Z,14604.00
2018-07-20T10:04:32.104Z,7004.00
2018-07-20T10:05:32.121Z,13740.00
2018-07-20T10:06:32.141Z,13860.00
2018-07-20T10:07:32.169Z,13996.00
2018-07-20T10:08:32.184Z,14084.00
2018-07-20T10:09:32.259Z,14144.00
2018-07-20T10:10:32.234Z,14100.00
2018-07-20T10:11:32.252Z,14048.00
2018-07-20T10:12:32.338Z,14124.00
2018-07-20T10:13:32.293Z,14156.00
2018-07-20T10:14:32.320Z,14072.00
2018-07-20T10:15:32.401Z,14084.00
2018-07-20T10:16:32.364Z,14060.00
2018-07-20T10:17:32.384Z,14060.00
2018-07-20T10:18:32.401Z,14156.00
2018-07-20T10:19:32.433Z,14124.00
2018-07-20T10:20:32.445Z,14232.00
2018-07-20T10:21:32.468Z,14244.00
2018-07-20T10:22:32.519Z,14328.00
2018-07-20T10:23:32.509Z,14260.00
2018-07-20T10:24:32.533Z,14288.00
2018-07-20T10:25:32.583Z,14356.00
2018-07-20T10:26:32.576Z,14444.00
2018-07-20T10:27:32.601Z,14492.00
2018-07-20T10:28:32.655Z,14460.00
2018-07-20T10:29:32.649Z,14508.00
2018-07-20T10:30:32.697Z,14504.00
2018-07-20T10:31:32.682Z,14576.00
2018-07-20T10:32:32.705Z,14492.00
2018-07-20T10:33:32.727Z,14488.00
2018-07-20T10:34:32.750Z,14444.00
2018-07-20T10:35:32.773Z,14412.00
2018-07-20T10:36:32.821Z,14444.00
2018-07-20T10:37:32.812Z,14496.00
2018-07-20T10:38:32.888Z,14564.00
2018-07-20T10:39:32.860Z,14632.00
2018-07-20T10:40:32.928Z,14600.00
2018-07-20T10:41:32.912Z,14652.00
2018-07-20T10:42:32.929Z,14604.00
2018-07-20T10:43:32.945Z,14696.00
2018-07-20T10:44:32.967Z,13936.00
2018-07-20T10:45:33.000Z,14672.00
2018-07-20T10:46:33.017Z,14696.00
2018-07-20T10:47:33.040Z,14716.00
2018-07-20T10:48:33.062Z,14740.00
2018-07-20T10:49:33.080Z,14720.00
2018-07-20T10:50:33.104Z,14612.00
2018-07-20T10:51:33.125Z,14696.00
2018-07-20T10:52:33.144Z,14708.00
2018-07-20T10:53:33.221Z,14704.00
2018-07-20T10:54:33.192Z,14944.00
2018-07-20T10:55:33.212Z,14944.00
2018-07-20T10:56:33.239Z,15072.00
2018-07-20T10:57:33.252Z,15136.00
2018-07-20T10:58:33.277Z,14976.00
2018-07-20T10:59:33.297Z,15136.00
2018-07-20T11:00:33.315Z,15008.00
2018-07-20T11:01:33.429Z,15104.00
2018-07-20T11:02:33.365Z,15008.00
2018-07-20T11:03:33.384Z,15008.00
2018-07-20T11:04:33.403Z,15008.00
2018-07-20T11:05:33.491Z,15040.00
2018-07-20T11:06:33.452Z,15008.00
2018-07-20T11:07:33.472Z,14976.00
2018-07-20T11:08:33.496Z,15040.00
2018-07-20T11:09:33.520Z,15136.00
2018-07-20T11:10:33.546Z,14976.00
2018-07-20T11:11:33.573Z,15008.00
2018-07-20T11:12:33.586Z,15072.00
2018-07-20T11:13:33.607Z,15168.00
2018-07-20T11:14:33.629Z,15168.00
2018-07-20T11:15:33.677Z,15168.00
2018-07-20T11:16:33.668Z,15168.00
2018-07-20T11:17:33.702Z,15104.00
2018-07-20T11:18:33.720Z,15168.00
2018-07-20T11:19:33.739Z,15104.00
2018-07-20T11:20:33.763Z,15136.00
2018-07-20T11:21:33.784Z,15264.00
2018-07-20T11:22:33.808Z,15232.00
2018-07-20T11:23:33.837Z,15232.00
2018-07-20T11:24:33.851Z,15232.00
2018-07-20T11:25:33.876Z,14816.00
2018-07-20T11:26:33.924Z,15136.00
2018-07-20T11:27:33.921Z,15168.00
2018-07-20T11:28:33.939Z,15168.00
2018-07-20T11:29:33.962Z,15168.00
2018-07-20T11:30:34.022Z,15200.00
2018-07-20T11:31:34.012Z,15168.00
2018-07-20T11:32:34.028Z,15264.00
2018-07-20T11:33:34.054Z,15264.00
2018-07-20T11:34:34.080Z,15264.00
2018-07-20T11:35:34.099Z,15136.00
2018-07-20T11:36:34.132Z,15264.00
2018-07-20T11:37:34.202Z,15232.00
2018-07-20T11:38:34.171Z,15296.00
2018-07-20T11:39:34.189Z,15264.00
2018-07-20T11:40:34.210Z,15296.00
2018-07-20T11:41:34.234Z,15264.00
2018-07-20T11:42:34.326Z,15200.00
2018-07-20T11:43:34.290Z,15232.00
2018-07-20T11:44:34.298Z,15264.00
2018-07-20T11:45:34.326Z,15168.00
2018-07-20T11:46:34.350Z,15200.00
2018-07-20T11:47:34.380Z,15200.00
2018-07-20T11:48:34.441Z,15328.00
2018-07-20T11:49:34.415Z,15104.00
2018-07-20T11:50:34.443Z,15232.00
2018-07-20T11:51:34.474Z,15104.00
2018-07-20T11:52:34.489Z,15168.00
2018-07-20T11:53:34.510Z,15200.00
2018-07-20T11:54:34.531Z,15328.00
2018-07-20T11:55:34.551Z,15200.00
2018-07-20T11:56:34.578Z,15232.00
2018-07-20T11:57:34.598Z,14636.00
2018-07-20T11:58:34.619Z,15136.00
2018-07-20T11:59:34.643Z,15232.00
2018-07-20T12:00:34.669Z,15232.00
2018-07-20T12:01:34.686Z,15232.00
2018-07-20T12:02:34.706Z,15200.00
2018-07-20T12:03:34.731Z,15136.00
2018-07-20T12:04:34.753Z,15232.00
2018-07-20T12:05:34.782Z,14912.00
2018-07-20T12:06:34.850Z,15232.00
2018-07-20T12:07:34.859Z,15200.00
2018-07-20T12:08:34.846Z,15264.00
2018-07-20T12:09:34.874Z,15168.00
2018-07-20T12:10:34.902Z,15136.00
2018-07-20T12:11:34.918Z,15136.00
2018-07-20T12:12:34.939Z,15232.00
2018-07-20T12:13:34.982Z,15264.00
2018-07-20T12:14:34.978Z,15328.00
2018-07-20T12:15:35.009Z,15264.00
2018-07-20T12:16:35.029Z,15296.00
2018-07-20T12:17:35.049Z,15232.00
2018-07-20T12:18:35.078Z,15232.00
2018-07-20T12:19:35.101Z,15168.00
2018-07-20T12:20:35.118Z,15264.00
2018-07-20T12:21:35.146Z,15296.00
2018-07-20T12:22:35.170Z,14540.00
2018-07-20T12:23:35.189Z,15168.00
2018-07-20T12:24:35.211Z,15136.00
2018-07-20T12:25:35.233Z,15168.00
2018-07-20T12:26:35.258Z,15136.00
2018-07-20T12:27:35.277Z,15232.00
2018-07-20T12:28:35.301Z,15232.00
2018-07-20T12:29:35.325Z,15072.00
2018-07-20T12:30:35.397Z,15072.00